sensor_id;sensor_type;location;lat;lon;timestamp;temperature;humidity
7366;DHT22;3723;52.220;8.792;2023-08-21T00:01:40;15.10;1.00
7366;DHT22;3723;52.220;8.792;2023-08-21T00:04:08;15.10;1.00
7366;DHT22;3723;52.220;8.792;2023-08-21T00:06:35;15.00;1.00
7366;DHT22;3723;52.220;8.792;2023-08-21T00:09:02;15.00;1.00
7366;DHT22;3723;52.220;8.792;2023-08-21T00:11:31;14.90;1.00
7366;DHT22;3723;52.220;8.792;2023-08-21T00:13:58;14.90;1.00
7366;DHT22;3723;52.220;8.792;2023-08-21T00:16:25;14.90;1.00
7366;DHT22;3723;52.220;8.792;2023-08-21T00:18:54;14.90;1.00
7366;DHT22;3723;52.220;8.792;2023-08-21T00:21:22;14.80;1.00
7366;DHT22;3723;52.220;8.792;2023-08-21T00:23:49;14.80;1.00
7366;DHT22;3723;52.220;8.792;2023-08-21T00:26:16;14.70;1.00
7366;DHT22;3723;52.220;8.792;2023-08-21T00:28:43;14.70;1.00
7366;DHT22;3723;52.220;8.792;2023-08-21T00:31:09;14.60;1.00
7366;DHT22;3723;52.220;8.792;2023-08-21T00:33:36;14.60;1.00
7366;DHT22;3723;52.220;8.792;2023-08-21T00:36:04;14.50;1.00
7366;DHT22;3723;52.220;8.792;2023-08-21T00:38:32;14.50;1.00
7366;DHT22;3723;52.220;8.792;2023-08-21T00:40:59;14.60;1.00
7366;DHT22;3723;52.220;8.792;2023-08-21T00:43:26;14.50;1.00
7366;DHT22;3723;52.220;8.792;2023-08-21T00:45:53;14.50;1.00
7366;DHT22;3723;52.220;8.792;2023-08-21T00:48:20;14.40;1.00
7366;DHT22;3723;52.220;8.792;2023-08-21T00:50:47;14.40;1.00
7366;DHT22;3723;52.220;8.792;2023-08-21T00:53:14;14.40;1.00
7366;DHT22;3723;52.220;8.792;2023-08-21T00:55:43;14.30;1.00
7366;DHT22;3723;52.220;8.792;2023-08-21T00:58:11;14.30;1.00
7366;DHT22;3723;52.220;8.792;2023-08-21T01:00:39;14.30;1.00
7366;DHT22;3723;52.220;8.792;2023-08-21T01:03:06;14.30;1.00
7366;DHT22;3723;52.220;8.792;2023-08-21T01:05:34;14.30;1.00
7366;DHT22;3723;52.220;8.792;2023-08-21T01:08:03;14.30;1.00
7366;DHT22;3723;52.220;8.792;2023-08-21T01:10:39;14.30;1.00
7366;DHT22;3723;52.220;8.792;2023-08-21T01:13:19;14.30;1.00
7366;DHT22;3723;52.220;8.792;2023-08-21T01:15:47;14.40;1.00
7366;DHT22;3723;52.220;8.792;2023-08-21T01:18:18;14.40;1.00
7366;DHT22;3723;52.220;8.792;2023-08-21T01:20:45;14.40;1.00
7366;DHT22;3723;52.220;8.792;2023-08-21T01:23:27;14.40;1.00
7366;DHT22;3723;52.220;8.792;2023-08-21T01:25:54;14.40;1.00
7366;DHT22;3723;52.220;8.792;2023-08-21T01:28:21;14.40;1.00
7366;DHT22;3723;52.220;8.792;2023-08-21T01:30:51;14.40;1.00
7366;DHT22;3723;52.220;8.792;2023-08-21T01:33:19;14.50;1.00
7366;DHT22;3723;52.220;8.792;2023-08-21T01:35:47;14.50;1.00
7366;DHT22;3723;52.220;8.792;2023-08-21T01:38:15;14.70;1.00
7366;DHT22;3723;52.220;8.792;2023-08-21T01:40:43;14.80;1.00
7366;DHT22;3723;52.220;8.792;2023-08-21T01:43:10;15.00;1.00
7366;DHT22;3723;52.220;8.792;2023-08-21T01:45:37;15.00;1.00
7366;DHT22;3723;52.220;8.792;2023-08-21T01:48:04;15.10;1.00
7366;DHT22;3723;52.220;8.792;2023-08-21T01:50:31;15.20;1.00
7366;DHT22;3723;52.220;8.792;2023-08-21T01:52:58;15.30;15.70
7366;DHT22;3723;52.220;8.792;2023-08-21T01:55:25;15.40;51.60
7366;DHT22;3723;52.220;8.792;2023-08-21T01:57:53;15.40;97.40
7366;DHT22;3723;52.220;8.792;2023-08-21T02:00:20;15.50;99.90
7366;DHT22;3723;52.220;8.792;2023-08-21T02:02:47;15.50;99.90
7366;DHT22;3723;52.220;8.792;2023-08-21T02:05:14;15.50;99.90
7366;DHT22;3723;52.220;8.792;2023-08-21T02:07:40;15.50;99.90
7366;DHT22;3723;52.220;8.792;2023-08-21T02:10:08;15.50;99.90
7366;DHT22;3723;52.220;8.792;2023-08-21T02:12:35;15.50;99.90
7366;DHT22;3723;52.220;8.792;2023-08-21T02:15:04;15.50;99.90
7366;DHT22;3723;52.220;8.792;2023-08-21T02:17:32;15.50;99.90
7366;DHT22;3723;52.220;8.792;2023-08-21T02:19:59;15.50;99.90
7366;DHT22;3723;52.220;8.792;2023-08-21T02:22:26;15.60;99.90
7366;DHT22;3723;52.220;8.792;2023-08-21T02:24:53;15.60;99.90
7366;DHT22;3723;52.220;8.792;2023-08-21T02:27:20;15.60;99.90
7366;DHT22;3723;52.220;8.792;2023-08-21T02:29:47;15.60;99.90
7366;DHT22;3723;52.220;8.792;2023-08-21T02:32:15;15.60;99.90
7366;DHT22;3723;52.220;8.792;2023-08-21T02:34:42;15.50;99.90
7366;DHT22;3723;52.220;8.792;2023-08-21T02:37:09;15.50;99.90
7366;DHT22;3723;52.220;8.792;2023-08-21T02:39:35;15.40;99.90
7366;DHT22;3723;52.220;8.792;2023-08-21T02:42:02;15.40;99.90
7366;DHT22;3723;52.220;8.792;2023-08-21T02:44:29;15.40;99.90
7366;DHT22;3723;52.220;8.792;2023-08-21T02:46:56;15.30;99.90
7366;DHT22;3723;52.220;8.792;2023-08-21T02:49:24;15.20;99.90
7366;DHT22;3723;52.220;8.792;2023-08-21T02:51:51;15.10;99.90
7366;DHT22;3723;52.220;8.792;2023-08-21T02:54:18;15.00;99.90
7366;DHT22;3723;52.220;8.792;2023-08-21T02:56:45;14.90;99.90
7366;DHT22;3723;52.220;8.792;2023-08-21T02:59:13;14.90;99.90
7366;DHT22;3723;52.220;8.792;2023-08-21T03:01:40;14.90;99.90
7366;DHT22;3723;52.220;8.792;2023-08-21T03:04:07;14.80;99.90
7366;DHT22;3723;52.220;8.792;2023-08-21T03:06:35;14.80;99.90
7366;DHT22;3723;52.220;8.792;2023-08-21T03:09:02;14.80;99.90
7366;DHT22;3723;52.220;8.792;2023-08-21T03:11:29;14.80;99.90
7366;DHT22;3723;52.220;8.792;2023-08-21T03:13:58;14.80;99.90
7366;DHT22;3723;52.220;8.792;2023-08-21T03:16:25;14.80;99.90
7366;DHT22;3723;52.220;8.792;2023-08-21T03:18:56;14.70;99.90
7366;DHT22;3723;52.220;8.792;2023-08-21T03:21:24;14.70;99.90
7366;DHT22;3723;52.220;8.792;2023-08-21T03:23:54;14.60;99.90
7366;DHT22;3723;52.220;8.792;2023-08-21T03:26:22;14.60;99.90
7366;DHT22;3723;52.220;8.792;2023-08-21T03:28:48;14.50;99.90
7366;DHT22;3723;52.220;8.792;2023-08-21T03:31:15;14.50;99.90
7366;DHT22;3723;52.220;8.792;2023-08-21T03:33:42;14.40;99.90
7366;DHT22;3723;52.220;8.792;2023-08-21T03:36:09;14.40;99.90
7366;DHT22;3723;52.220;8.792;2023-08-21T03:38:36;14.40;99.90
7366;DHT22;3723;52.220;8.792;2023-08-21T03:41:04;14.50;99.90
7366;DHT22;3723;52.220;8.792;2023-08-21T03:43:31;14.50;99.90
7366;DHT22;3723;52.220;8.792;2023-08-21T03:45:58;14.50;1.00
7366;DHT22;3723;52.220;8.792;2023-08-21T03:48:25;14.60;1.00
7366;DHT22;3723;52.220;8.792;2023-08-21T03:50:52;14.60;1.00
7366;DHT22;3723;52.220;8.792;2023-08-21T03:53:19;14.60;1.00
7366;DHT22;3723;52.220;8.792;2023-08-21T03:55:46;14.60;1.00
7366;DHT22;3723;52.220;8.792;2023-08-21T03:58:14;14.70;1.00
7366;DHT22;3723;52.220;8.792;2023-08-21T04:00:41;14.70;1.00
7366;DHT22;3723;52.220;8.792;2023-08-21T04:03:08;14.70;1.00
7366;DHT22;3723;52.220;8.792;2023-08-21T04:05:35;14.80;1.00
7366;DHT22;3723;52.220;8.792;2023-08-21T04:08:02;14.90;1.00
7366;DHT22;3723;52.220;8.792;2023-08-21T04:10:29;15.00;1.00
7366;DHT22;3723;52.220;8.792;2023-08-21T04:12:56;15.00;1.00
7366;DHT22;3723;52.220;8.792;2023-08-21T04:15:26;15.10;1.00
7366;DHT22;3723;52.220;8.792;2023-08-21T04:17:54;15.10;1.00
7366;DHT22;3723;52.220;8.792;2023-08-21T04:20:21;15.10;1.00
7366;DHT22;3723;52.220;8.792;2023-08-21T04:22:48;15.20;1.00
7366;DHT22;3723;52.220;8.792;2023-08-21T04:25:15;15.20;1.00
7366;DHT22;3723;52.220;8.792;2023-08-21T04:27:42;15.20;1.00
7366;DHT22;3723;52.220;8.792;2023-08-21T04:30:10;15.20;1.00
7366;DHT22;3723;52.220;8.792;2023-08-21T04:32:39;15.20;1.00
7366;DHT22;3723;52.220;8.792;2023-08-21T04:35:06;15.20;1.00
7366;DHT22;3723;52.220;8.792;2023-08-21T04:37:34;15.20;1.00
7366;DHT22;3723;52.220;8.792;2023-08-21T04:40:01;15.30;1.00
7366;DHT22;3723;52.220;8.792;2023-08-21T04:42:28;15.30;1.00
7366;DHT22;3723;52.220;8.792;2023-08-21T04:44:55;15.40;1.00
7366;DHT22;3723;52.220;8.792;2023-08-21T04:47:23;15.50;8.10
7366;DHT22;3723;52.220;8.792;2023-08-21T04:52:57;15.70;79.10
7366;DHT22;3723;52.220;8.792;2023-08-21T04:55:24;15.80;99.90
7366;DHT22;3723;52.220;8.792;2023-08-21T04:57:51;15.90;99.90
7366;DHT22;3723;52.220;8.792;2023-08-21T05:00:18;16.00;99.90
7366;DHT22;3723;52.220;8.792;2023-08-21T05:02:45;16.20;99.90
7366;DHT22;3723;52.220;8.792;2023-08-21T05:05:14;16.20;99.90
7366;DHT22;3723;52.220;8.792;2023-08-21T05:08:05;16.20;99.90
7366;DHT22;3723;52.220;8.792;2023-08-21T05:10:39;16.30;99.90
7366;DHT22;3723;52.220;8.792;2023-08-21T05:13:11;16.20;99.90
7366;DHT22;3723;52.220;8.792;2023-08-21T05:15:49;16.20;99.90
7366;DHT22;3723;52.220;8.792;2023-08-21T05:18:19;16.20;99.90
7366;DHT22;3723;52.220;8.792;2023-08-21T05:20:53;16.30;99.90
7366;DHT22;3723;52.220;8.792;2023-08-21T05:23:24;16.40;1.00
7366;DHT22;3723;52.220;8.792;2023-08-21T05:25:51;16.50;99.90
7366;DHT22;3723;52.220;8.792;2023-08-21T05:28:18;16.50;99.90
7366;DHT22;3723;52.220;8.792;2023-08-21T05:30:47;16.50;99.90
7366;DHT22;3723;52.220;8.792;2023-08-21T05:40:39;16.70;99.90
7366;DHT22;3723;52.220;8.792;2023-08-21T05:43:10;16.70;99.90
7366;DHT22;3723;52.220;8.792;2023-08-21T05:47:01;16.70;99.90
7366;DHT22;3723;52.220;8.792;2023-08-21T05:48:36;16.70;99.90
7366;DHT22;3723;52.220;8.792;2023-08-21T05:51:03;16.60;99.90
7366;DHT22;3723;52.220;8.792;2023-08-21T05:53:31;16.60;99.90
7366;DHT22;3723;52.220;8.792;2023-08-21T05:58:32;17.10;99.90
7366;DHT22;3723;52.220;8.792;2023-08-21T06:01:00;18.20;99.90
7366;DHT22;3723;52.220;8.792;2023-08-21T06:03:28;19.60;99.90
7366;DHT22;3723;52.220;8.792;2023-08-21T06:05:56;20.70;1.00
7366;DHT22;3723;52.220;8.792;2023-08-21T06:08:23;21.80;1.00
7366;DHT22;3723;52.220;8.792;2023-08-21T06:13:59;23.30;99.90
7366;DHT22;3723;52.220;8.792;2023-08-21T06:16:50;24.00;1.00
7366;DHT22;3723;52.220;8.792;2023-08-21T06:19:17;24.40;99.90
7366;DHT22;3723;52.220;8.792;2023-08-21T06:21:45;24.70;1.00
7366;DHT22;3723;52.220;8.792;2023-08-21T06:24:12;24.90;99.90
7366;DHT22;3723;52.220;8.792;2023-08-21T06:26:40;25.20;99.90
7366;DHT22;3723;52.220;8.792;2023-08-21T06:29:34;25.40;88.50
7366;DHT22;3723;52.220;8.792;2023-08-21T06:36:01;26.60;7.80
7366;DHT22;3723;52.220;8.792;2023-08-21T06:38:47;27.40;1.00
7366;DHT22;3723;52.220;8.792;2023-08-21T06:42:25;28.10;1.00
7366;DHT22;3723;52.220;8.792;2023-08-21T07:38:02;26.80;99.90
7366;DHT22;3723;52.220;8.792;2023-08-21T07:41:07;27.20;99.90
7366;DHT22;3723;52.220;8.792;2023-08-21T07:44:22;26.70;99.90
7366;DHT22;3723;52.220;8.792;2023-08-21T07:46:55;26.30;99.90
7366;DHT22;3723;52.220;8.792;2023-08-21T07:49:25;25.80;99.90
7366;DHT22;3723;52.220;8.792;2023-08-21T07:55:23;25.40;99.90
7366;DHT22;3723;52.220;8.792;2023-08-21T07:58:21;25.40;99.90
7366;DHT22;3723;52.220;8.792;2023-08-21T08:01:03;25.40;99.90
7366;DHT22;3723;52.220;8.792;2023-08-21T08:03:55;25.20;99.90
7366;DHT22;3723;52.220;8.792;2023-08-21T08:10:40;25.40;99.90
7366;DHT22;3723;52.220;8.792;2023-08-21T08:13:45;26.20;99.90
7366;DHT22;3723;52.220;8.792;2023-08-21T08:16:12;27.20;99.90
7366;DHT22;3723;52.220;8.792;2023-08-21T08:22:44;27.70;99.90
7366;DHT22;3723;52.220;8.792;2023-08-21T08:41:36;26.90;99.90
7366;DHT22;3723;52.220;8.792;2023-08-21T08:44:32;26.90;99.90
7366;DHT22;3723;52.220;8.792;2023-08-21T08:47:40;26.70;99.90
7366;DHT22;3723;52.220;8.792;2023-08-21T08:50:31;27.10;99.90
7366;DHT22;3723;52.220;8.792;2023-08-21T08:56:23;29.10;99.90
7366;DHT22;3723;52.220;8.792;2023-08-21T08:59:17;30.20;99.90
7366;DHT22;3723;52.220;8.792;2023-08-21T09:05:10;31.30;99.90
7366;DHT22;3723;52.220;8.792;2023-08-21T09:07:38;31.70;99.90
7366;DHT22;3723;52.220;8.792;2023-08-21T09:10:15;31.80;99.90
7366;DHT22;3723;52.220;8.792;2023-08-21T09:23:22;32.30;99.90
7366;DHT22;3723;52.220;8.792;2023-08-21T09:29:28;31.80;99.90
7366;DHT22;3723;52.220;8.792;2023-08-21T09:39:32;31.30;99.90
7366;DHT22;3723;52.220;8.792;2023-08-21T09:45:48;31.50;99.90
7366;DHT22;3723;52.220;8.792;2023-08-21T09:52:17;31.50;99.90
7366;DHT22;3723;52.220;8.792;2023-08-21T10:23:37;30.70;99.90
7366;DHT22;3723;52.220;8.792;2023-08-21T10:26:10;31.30;99.90
7366;DHT22;3723;52.220;8.792;2023-08-21T10:28:51;31.90;99.90
7366;DHT22;3723;52.220;8.792;2023-08-21T10:31:41;32.70;99.90
7366;DHT22;3723;52.220;8.792;2023-08-21T10:34:34;33.20;99.90
7366;DHT22;3723;52.220;8.792;2023-08-21T10:37:11;33.60;99.90
7366;DHT22;3723;52.220;8.792;2023-08-21T10:39:58;33.40;99.90
7366;DHT22;3723;52.220;8.792;2023-08-21T10:42:44;33.00;99.90
7366;DHT22;3723;52.220;8.792;2023-08-21T10:45:31;32.70;99.90
7366;DHT22;3723;52.220;8.792;2023-08-21T10:47:58;32.80;99.90
7366;DHT22;3723;52.220;8.792;2023-08-21T10:50:35;33.40;99.90
7366;DHT22;3723;52.220;8.792;2023-08-21T10:53:03;34.20;99.90
7366;DHT22;3723;52.220;8.792;2023-08-21T10:55:41;34.50;99.90
7366;DHT22;3723;52.220;8.792;2023-08-21T10:58:09;34.00;99.90
7366;DHT22;3723;52.220;8.792;2023-08-21T11:00:40;33.40;99.90
7366;DHT22;3723;52.220;8.792;2023-08-21T11:03:07;32.80;99.90
7366;DHT22;3723;52.220;8.792;2023-08-21T11:05:34;32.30;99.90
7366;DHT22;3723;52.220;8.792;2023-08-21T11:08:01;31.70;99.90
7366;DHT22;3723;52.220;8.792;2023-08-21T11:10:41;32.00;99.90
7366;DHT22;3723;52.220;8.792;2023-08-21T11:13:09;33.20;99.90
7366;DHT22;3723;52.220;8.792;2023-08-21T11:15:46;34.60;99.90
7366;DHT22;3723;52.220;8.792;2023-08-21T11:18:20;35.50;99.90
7366;DHT22;3723;52.220;8.792;2023-08-21T11:23:53;34.40;99.90
7366;DHT22;3723;52.220;8.792;2023-08-21T11:26:39;33.60;99.90
7366;DHT22;3723;52.220;8.792;2023-08-21T11:29:16;32.60;99.90
7366;DHT22;3723;52.220;8.792;2023-08-21T11:31:52;31.70;99.90
7366;DHT22;3723;52.220;8.792;2023-08-21T11:34:49;31.30;99.90
7366;DHT22;3723;52.220;8.792;2023-08-21T11:37:42;31.00;99.90
7366;DHT22;3723;52.220;8.792;2023-08-21T11:40:18;30.80;99.90
7366;DHT22;3723;52.220;8.792;2023-08-21T11:43:02;30.20;99.90
7366;DHT22;3723;52.220;8.792;2023-08-21T11:45:43;29.80;99.90
7366;DHT22;3723;52.220;8.792;2023-08-21T11:48:12;29.90;99.90
7366;DHT22;3723;52.220;8.792;2023-08-21T11:50:41;29.90;99.90
7366;DHT22;3723;52.220;8.792;2023-08-21T11:53:07;29.70;99.90
7366;DHT22;3723;52.220;8.792;2023-08-21T11:55:36;29.60;99.90
7366;DHT22;3723;52.220;8.792;2023-08-21T11:58:07;29.60;99.90
7366;DHT22;3723;52.220;8.792;2023-08-21T12:00:43;29.50;99.90
7366;DHT22;3723;52.220;8.792;2023-08-21T12:03:18;29.60;99.90
7366;DHT22;3723;52.220;8.792;2023-08-21T12:05:45;30.40;99.90
7366;DHT22;3723;52.220;8.792;2023-08-21T12:08:14;31.80;99.90
7366;DHT22;3723;52.220;8.792;2023-08-21T12:10:41;32.30;99.90
7366;DHT22;3723;52.220;8.792;2023-08-21T12:13:11;32.50;99.90
7366;DHT22;3723;52.220;8.792;2023-08-21T12:15:43;32.30;99.90
7366;DHT22;3723;52.220;8.792;2023-08-21T12:18:20;32.30;99.90
7366;DHT22;3723;52.220;8.792;2023-08-21T12:20:52;32.00;99.90
7366;DHT22;3723;52.220;8.792;2023-08-21T12:23:40;32.70;99.90
7366;DHT22;3723;52.220;8.792;2023-08-21T12:26:10;33.00;99.90
7366;DHT22;3723;52.220;8.792;2023-08-21T12:28:50;33.10;99.90
7366;DHT22;3723;52.220;8.792;2023-08-21T12:31:17;33.20;99.90
7366;DHT22;3723;52.220;8.792;2023-08-21T12:33:44;33.60;99.90
7366;DHT22;3723;52.220;8.792;2023-08-21T12:36:11;33.50;99.90
7366;DHT22;3723;52.220;8.792;2023-08-21T12:38:50;33.70;99.90
7366;DHT22;3723;52.220;8.792;2023-08-21T12:41:17;34.20;99.90
7366;DHT22;3723;52.220;8.792;2023-08-21T12:46:27;34.60;99.90
7366;DHT22;3723;52.220;8.792;2023-08-21T12:48:54;33.90;99.90
7366;DHT22;3723;52.220;8.792;2023-08-21T12:51:33;33.40;99.90
7366;DHT22;3723;52.220;8.792;2023-08-21T12:54:01;32.50;99.90
7366;DHT22;3723;52.220;8.792;2023-08-21T12:56:29;31.60;99.90
7366;DHT22;3723;52.220;8.792;2023-08-21T12:58:56;30.80;99.90
7366;DHT22;3723;52.220;8.792;2023-08-21T13:01:29;30.30;99.90
7366;DHT22;3723;52.220;8.792;2023-08-21T13:04:07;30.30;99.90
7366;DHT22;3723;52.220;8.792;2023-08-21T13:06:34;30.40;99.90
7366;DHT22;3723;52.220;8.792;2023-08-21T13:09:01;30.70;99.90
7366;DHT22;3723;52.220;8.792;2023-08-21T13:11:32;30.80;99.90
7366;DHT22;3723;52.220;8.792;2023-08-21T13:13:59;30.80;99.90
7366;DHT22;3723;52.220;8.792;2023-08-21T13:16:26;31.00;99.90
7366;DHT22;3723;52.220;8.792;2023-08-21T13:18:55;31.80;99.90
7366;DHT22;3723;52.220;8.792;2023-08-21T13:21:21;32.30;99.90
7366;DHT22;3723;52.220;8.792;2023-08-21T13:23:48;32.50;99.90
7366;DHT22;3723;52.220;8.792;2023-08-21T13:26:25;32.50;99.90
7366;DHT22;3723;52.220;8.792;2023-08-21T13:28:55;32.40;99.90
7366;DHT22;3723;52.220;8.792;2023-08-21T13:31:23;31.90;99.90
7366;DHT22;3723;52.220;8.792;2023-08-21T13:33:52;31.30;99.90
7366;DHT22;3723;52.220;8.792;2023-08-21T13:36:21;30.90;99.90
7366;DHT22;3723;52.220;8.792;2023-08-21T13:38:57;30.80;99.90
7366;DHT22;3723;52.220;8.792;2023-08-21T13:41:24;31.00;99.90
7366;DHT22;3723;52.220;8.792;2023-08-21T13:43:51;31.40;99.90
7366;DHT22;3723;52.220;8.792;2023-08-21T13:46:19;32.40;99.90
7366;DHT22;3723;52.220;8.792;2023-08-21T13:51:14;34.60;99.90
7366;DHT22;3723;52.220;8.792;2023-08-21T13:53:42;34.80;99.90
7366;DHT22;3723;52.220;8.792;2023-08-21T13:56:10;34.40;99.90
7366;DHT22;3723;52.220;8.792;2023-08-21T13:58:36;33.90;99.90
7366;DHT22;3723;52.220;8.792;2023-08-21T14:01:03;33.60;99.90
7366;DHT22;3723;52.220;8.792;2023-08-21T14:03:32;33.50;99.90
7366;DHT22;3723;52.220;8.792;2023-08-21T14:05:59;33.50;99.90
7366;DHT22;3723;52.220;8.792;2023-08-21T14:08:26;33.20;99.90
7366;DHT22;3723;52.220;8.792;2023-08-21T14:10:54;32.90;99.90
7366;DHT22;3723;52.220;8.792;2023-08-21T14:13:21;32.70;99.90
7366;DHT22;3723;52.220;8.792;2023-08-21T14:15:48;32.90;99.90
7366;DHT22;3723;52.220;8.792;2023-08-21T14:18:15;33.50;99.90
7366;DHT22;3723;52.220;8.792;2023-08-21T14:20:42;34.10;99.90
7366;DHT22;3723;52.220;8.792;2023-08-21T14:23:09;34.50;99.90
7366;DHT22;3723;52.220;8.792;2023-08-21T14:25:36;34.20;99.90
7366;DHT22;3723;52.220;8.792;2023-08-21T14:28:05;33.80;99.90
7366;DHT22;3723;52.220;8.792;2023-08-21T14:30:32;33.90;99.90
7366;DHT22;3723;52.220;8.792;2023-08-21T14:32:59;33.70;99.90
7366;DHT22;3723;52.220;8.792;2023-08-21T14:35:26;33.10;99.90
7366;DHT22;3723;52.220;8.792;2023-08-21T14:37:55;32.30;99.90
7366;DHT22;3723;52.220;8.792;2023-08-21T14:40:22;31.90;99.90
7366;DHT22;3723;52.220;8.792;2023-08-21T14:42:49;31.90;99.90
7366;DHT22;3723;52.220;8.792;2023-08-21T14:45:18;32.30;99.90
7366;DHT22;3723;52.220;8.792;2023-08-21T14:47:44;32.70;99.90
7366;DHT22;3723;52.220;8.792;2023-08-21T14:50:11;33.30;99.90
7366;DHT22;3723;52.220;8.792;2023-08-21T14:52:38;33.90;99.90
7366;DHT22;3723;52.220;8.792;2023-08-21T14:55:07;33.70;99.90
7366;DHT22;3723;52.220;8.792;2023-08-21T14:57:34;33.20;99.90
7366;DHT22;3723;52.220;8.792;2023-08-21T15:00:01;33.50;99.90
7366;DHT22;3723;52.220;8.792;2023-08-21T15:02:30;34.00;99.90
7366;DHT22;3723;52.220;8.792;2023-08-21T15:04:57;33.70;99.90
7366;DHT22;3723;52.220;8.792;2023-08-21T15:07:24;33.00;99.90
7366;DHT22;3723;52.220;8.792;2023-08-21T15:09:50;32.50;99.90
7366;DHT22;3723;52.220;8.792;2023-08-21T15:12:17;31.90;99.90
7366;DHT22;3723;52.220;8.792;2023-08-21T15:14:45;31.10;99.90
7366;DHT22;3723;52.220;8.792;2023-08-21T15:17:12;30.40;99.90
7366;DHT22;3723;52.220;8.792;2023-08-21T15:19:50;29.90;99.90
7366;DHT22;3723;52.220;8.792;2023-08-21T15:22:17;29.40;99.90
7366;DHT22;3723;52.220;8.792;2023-08-21T15:24:45;29.10;99.90
7366;DHT22;3723;52.220;8.792;2023-08-21T15:27:12;28.90;99.90
7366;DHT22;3723;52.220;8.792;2023-08-21T15:29:39;28.80;99.90
7366;DHT22;3723;52.220;8.792;2023-08-21T15:32:06;29.20;99.90
7366;DHT22;3723;52.220;8.792;2023-08-21T15:34:32;29.40;99.90
7366;DHT22;3723;52.220;8.792;2023-08-21T15:37:01;29.40;99.90
7366;DHT22;3723;52.220;8.792;2023-08-21T15:39:31;29.10;99.90
7366;DHT22;3723;52.220;8.792;2023-08-21T15:41:58;28.80;99.90
7366;DHT22;3723;52.220;8.792;2023-08-21T15:44:25;28.50;99.90
7366;DHT22;3723;52.220;8.792;2023-08-21T15:46:54;28.20;99.90
7366;DHT22;3723;52.220;8.792;2023-08-21T15:49:21;28.30;99.90
7366;DHT22;3723;52.220;8.792;2023-08-21T15:51:48;28.90;99.90
7366;DHT22;3723;52.220;8.792;2023-08-21T15:54:18;29.90;99.90
7366;DHT22;3723;52.220;8.792;2023-08-21T15:56:46;30.80;99.90
7366;DHT22;3723;52.220;8.792;2023-08-21T15:59:13;31.70;99.90
7366;DHT22;3723;52.220;8.792;2023-08-21T16:01:40;32.30;99.90
7366;DHT22;3723;52.220;8.792;2023-08-21T16:04:06;32.60;99.90
7366;DHT22;3723;52.220;8.792;2023-08-21T16:06:33;32.60;99.90
7366;DHT22;3723;52.220;8.792;2023-08-21T16:09:01;32.50;99.90
7366;DHT22;3723;52.220;8.792;2023-08-21T16:11:30;32.40;99.90
7366;DHT22;3723;52.220;8.792;2023-08-21T16:13:59;32.20;99.90
7366;DHT22;3723;52.220;8.792;2023-08-21T16:16:27;32.10;99.90
7366;DHT22;3723;52.220;8.792;2023-08-21T16:18:54;32.10;99.90
7366;DHT22;3723;52.220;8.792;2023-08-21T16:21:21;32.40;99.90
7366;DHT22;3723;52.220;8.792;2023-08-21T16:23:48;32.70;99.90
7366;DHT22;3723;52.220;8.792;2023-08-21T16:26:15;32.80;99.90
7366;DHT22;3723;52.220;8.792;2023-08-21T16:28:43;32.90;99.90
7366;DHT22;3723;52.220;8.792;2023-08-21T16:31:13;32.70;99.90
7366;DHT22;3723;52.220;8.792;2023-08-21T16:33:41;32.40;99.90
7366;DHT22;3723;52.220;8.792;2023-08-21T16:36:08;32.00;99.90
7366;DHT22;3723;52.220;8.792;2023-08-21T16:38:35;31.80;99.90
7366;DHT22;3723;52.220;8.792;2023-08-21T16:41:02;31.70;99.90
7366;DHT22;3723;52.220;8.792;2023-08-21T16:43:29;31.80;99.90
7366;DHT22;3723;52.220;8.792;2023-08-21T16:45:57;31.80;99.90
7366;DHT22;3723;52.220;8.792;2023-08-21T16:48:26;31.60;99.90
7366;DHT22;3723;52.220;8.792;2023-08-21T16:51:00;31.50;99.90
7366;DHT22;3723;52.220;8.792;2023-08-21T16:53:27;31.30;99.90
7366;DHT22;3723;52.220;8.792;2023-08-21T16:56:07;31.30;99.90
7366;DHT22;3723;52.220;8.792;2023-08-21T16:58:35;31.20;99.90
7366;DHT22;3723;52.220;8.792;2023-08-21T17:01:22;31.10;99.90
7366;DHT22;3723;52.220;8.792;2023-08-21T17:04:04;30.80;99.90
7366;DHT22;3723;52.220;8.792;2023-08-21T17:06:35;30.60;99.90
7366;DHT22;3723;52.220;8.792;2023-08-21T17:09:04;30.40;99.90
7366;DHT22;3723;52.220;8.792;2023-08-21T17:11:32;30.00;99.90
7366;DHT22;3723;52.220;8.792;2023-08-21T17:14:03;29.50;99.90
7366;DHT22;3723;52.220;8.792;2023-08-21T17:19:00;28.20;99.90
7366;DHT22;3723;52.220;8.792;2023-08-21T17:21:28;27.50;99.90
7366;DHT22;3723;52.220;8.792;2023-08-21T17:23:57;27.00;99.90
7366;DHT22;3723;52.220;8.792;2023-08-21T17:26:24;26.50;99.90
7366;DHT22;3723;52.220;8.792;2023-08-21T17:28:51;26.10;99.90
7366;DHT22;3723;52.220;8.792;2023-08-21T17:31:20;25.80;99.90
7366;DHT22;3723;52.220;8.792;2023-08-21T17:36:19;25.30;99.90
7366;DHT22;3723;52.220;8.792;2023-08-21T17:38:46;25.10;99.90
7366;DHT22;3723;52.220;8.792;2023-08-21T17:41:14;24.90;99.90
7366;DHT22;3723;52.220;8.792;2023-08-21T17:43:42;24.70;99.90
7366;DHT22;3723;52.220;8.792;2023-08-21T17:46:09;24.60;99.90
7366;DHT22;3723;52.220;8.792;2023-08-21T17:48:37;24.50;99.90
7366;DHT22;3723;52.220;8.792;2023-08-21T17:51:05;24.30;99.90
7366;DHT22;3723;52.220;8.792;2023-08-21T17:53:32;24.20;99.90
7366;DHT22;3723;52.220;8.792;2023-08-21T17:56:00;24.10;99.90
7366;DHT22;3723;52.220;8.792;2023-08-21T17:58:32;23.90;99.90
7366;DHT22;3723;52.220;8.792;2023-08-21T18:01:06;23.80;99.90
7366;DHT22;3723;52.220;8.792;2023-08-21T18:03:45;23.70;99.90
7366;DHT22;3723;52.220;8.792;2023-08-21T18:06:15;23.60;99.90
7366;DHT22;3723;52.220;8.792;2023-08-21T18:08:47;23.40;99.90
7366;DHT22;3723;52.220;8.792;2023-08-21T18:11:22;23.30;99.90
7366;DHT22;3723;52.220;8.792;2023-08-21T18:13:49;23.20;99.90
7366;DHT22;3723;52.220;8.792;2023-08-21T18:16:24;23.10;99.90
7366;DHT22;3723;52.220;8.792;2023-08-21T18:19:07;23.00;99.90
7366;DHT22;3723;52.220;8.792;2023-08-21T18:21:36;22.80;99.90
7366;DHT22;3723;52.220;8.792;2023-08-21T18:24:08;22.60;99.90
7366;DHT22;3723;52.220;8.792;2023-08-21T18:26:36;22.50;99.90
7366;DHT22;3723;52.220;8.792;2023-08-21T18:29:07;22.30;99.90
7366;DHT22;3723;52.220;8.792;2023-08-21T18:31:41;22.10;99.90
7366;DHT22;3723;52.220;8.792;2023-08-21T18:34:22;21.90;99.90
7366;DHT22;3723;52.220;8.792;2023-08-21T18:36:54;21.70;99.90
7366;DHT22;3723;52.220;8.792;2023-08-21T18:39:29;21.60;99.90
7366;DHT22;3723;52.220;8.792;2023-08-21T18:41:58;21.40;99.90
7366;DHT22;3723;52.220;8.792;2023-08-21T18:44:28;21.30;99.90
7366;DHT22;3723;52.220;8.792;2023-08-21T18:46:58;21.20;99.90
7366;DHT22;3723;52.220;8.792;2023-08-21T18:49:26;21.10;99.90
7366;DHT22;3723;52.220;8.792;2023-08-21T18:52:00;21.00;99.90
7366;DHT22;3723;52.220;8.792;2023-08-21T18:54:36;20.80;99.90
7366;DHT22;3723;52.220;8.792;2023-08-21T18:57:06;20.70;99.90
7366;DHT22;3723;52.220;8.792;2023-08-21T19:02:08;20.50;99.90
7366;DHT22;3723;52.220;8.792;2023-08-21T19:04:36;20.40;99.90
7366;DHT22;3723;52.220;8.792;2023-08-21T19:07:06;20.30;99.90
7366;DHT22;3723;52.220;8.792;2023-08-21T19:09:35;20.10;99.90
7366;DHT22;3723;52.220;8.792;2023-08-21T19:12:10;20.00;99.90
7366;DHT22;3723;52.220;8.792;2023-08-21T19:14:41;19.90;1.00
7366;DHT22;3723;52.220;8.792;2023-08-21T19:17:13;19.80;1.00
7366;DHT22;3723;52.220;8.792;2023-08-21T19:19:43;19.60;1.00
7366;DHT22;3723;52.220;8.792;2023-08-21T19:22:19;19.50;1.00
7366;DHT22;3723;52.220;8.792;2023-08-21T19:24:55;19.40;1.00
7366;DHT22;3723;52.220;8.792;2023-08-21T19:27:28;19.30;1.00
7366;DHT22;3723;52.220;8.792;2023-08-21T19:30:03;19.30;52.20